sensor_id;sensor_type;location;lat;lon;timestamp;P1;durP1;ratioP1;P2;durP2;ratioP2
58460;SDS011;45558;37.752;-97.822;2022-09-09T00:00:38;18.05;;;9.35;;
58460;SDS011;45558;37.752;-97.822;2022-09-09T00:05:55;16.23;;;8.40;;
58460;SDS011;45558;37.752;-97.822;2022-09-09T00:08:25;20.20;;;8.38;;
58460;SDS011;45558;37.752;-97.822;2022-09-09T00:10:59;16.60;;;9.40;;
58460;SDS011;45558;37.752;-97.822;2022-09-09T00:14:10;15.27;;;8.82;;
58460;SDS011;45558;37.752;-97.822;2022-09-09T00:16:19;19.85;;;8.55;;
58460;SDS011;45558;37.752;-97.822;2022-09-09T00:18:56;13.88;;;8.05;;
58460;SDS011;45558;37.752;-97.822;2022-09-09T00:27:09;14.40;;;8.20;;
58460;SDS011;45558;37.752;-97.822;2022-09-09T00:29:59;14.00;;;8.00;;
58460;SDS011;45558;37.752;-97.822;2022-09-09T00:32:37;28.65;;;8.57;;
58460;SDS011;45558;37.752;-97.822;2022-09-09T00:35:04;13.88;;;8.85;;
58460;SDS011;45558;37.752;-97.822;2022-09-09T00:37:41;15.70;;;8.60;;
58460;SDS011;45558;37.752;-97.822;2022-09-09T00:40:18;19.08;;;8.10;;
58460;SDS011;45558;37.752;-97.822;2022-09-09T00:42:48;25.13;;;8.60;;
58460;SDS011;45558;37.752;-97.822;2022-09-09T00:48:10;16.70;;;7.47;;
58460;SDS011;45558;37.752;-97.822;2022-09-09T00:50:51;14.40;;;7.00;;
58460;SDS011;45558;37.752;-97.822;2022-09-09T00:56:20;15.20;;;7.78;;
58460;SDS011;45558;37.752;-97.822;2022-09-09T00:58:57;14.02;;;7.25;;
58460;SDS011;45558;37.752;-97.822;2022-09-09T01:01:25;14.27;;;8.27;;
58460;SDS011;45558;37.752;-97.822;2022-09-09T01:03:54;15.40;;;8.23;;
58460;SDS011;45558;37.752;-97.822;2022-09-09T01:17:48;19.02;;;8.38;;
58460;SDS011;45558;37.752;-97.822;2022-09-09T01:20:23;26.88;;;8.93;;
58460;SDS011;45558;37.752;-97.822;2022-09-09T01:23:04;17.80;;;7.97;;
58460;SDS011;45558;37.752;-97.822;2022-09-09T01:28:55;22.27;;;8.38;;
58460;SDS011;45558;37.752;-97.822;2022-09-09T01:31:26;18.67;;;7.70;;
58460;SDS011;45558;37.752;-97.822;2022-09-09T01:33:57;15.23;;;8.98;;
58460;SDS011;45558;37.752;-97.822;2022-09-09T01:36:33;22.00;;;9.05;;
58460;SDS011;45558;37.752;-97.822;2022-09-09T01:39:02;18.35;;;8.75;;
58460;SDS011;45558;37.752;-97.822;2022-09-09T01:41:28;20.60;;;8.88;;
58460;SDS011;45558;37.752;-97.822;2022-09-09T01:43:54;19.15;;;7.97;;
58460;SDS011;45558;37.752;-97.822;2022-09-09T01:46:20;14.98;;;7.85;;
58460;SDS011;45558;37.752;-97.822;2022-09-09T01:48:47;22.73;;;8.82;;
58460;SDS011;45558;37.752;-97.822;2022-09-09T01:51:14;23.65;;;9.65;;
58460;SDS011;45558;37.752;-97.822;2022-09-09T01:53:39;24.20;;;9.98;;
58460;SDS011;45558;37.752;-97.822;2022-09-09T01:59:03;21.75;;;10.52;;
58460;SDS011;45558;37.752;-97.822;2022-09-09T02:04:58;23.42;;;10.70;;
58460;SDS011;45558;37.752;-97.822;2022-09-09T02:09:44;27.80;;;11.52;;
58460;SDS011;45558;37.752;-97.822;2022-09-09T02:12:13;19.02;;;10.40;;
58460;SDS011;45558;37.752;-97.822;2022-09-09T02:14:41;25.25;;;10.65;;
58460;SDS011;45558;37.752;-97.822;2022-09-09T02:17:11;22.42;;;10.30;;
58460;SDS011;45558;37.752;-97.822;2022-09-09T02:19:45;19.80;;;10.15;;
58460;SDS011;45558;37.752;-97.822;2022-09-09T02:22:15;25.63;;;12.20;;
58460;SDS011;45558;37.752;-97.822;2022-09-09T02:24:42;21.70;;;10.98;;
58460;SDS011;45558;37.752;-97.822;2022-09-09T02:27:11;25.02;;;10.48;;
58460;SDS011;45558;37.752;-97.822;2022-09-09T02:29:40;30.55;;;11.05;;
58460;SDS011;45558;37.752;-97.822;2022-09-09T02:32:07;19.92;;;10.15;;
58460;SDS011;45558;37.752;-97.822;2022-09-09T02:34:36;28.08;;;10.45;;
58460;SDS011;45558;37.752;-97.822;2022-09-09T02:37:15;22.58;;;10.02;;
58460;SDS011;45558;37.752;-97.822;2022-09-09T02:39:43;20.95;;;10.30;;
58460;SDS011;45558;37.752;-97.822;2022-09-09T02:42:09;22.77;;;10.43;;
58460;SDS011;45558;37.752;-97.822;2022-09-09T02:44:34;20.77;;;10.38;;
58460;SDS011;45558;37.752;-97.822;2022-09-09T02:50:10;24.13;;;9.63;;
58460;SDS011;45558;37.752;-97.822;2022-09-09T02:55:19;21.60;;;10.23;;
58460;SDS011;45558;37.752;-97.822;2022-09-09T02:57:48;21.27;;;9.50;;
58460;SDS011;45558;37.752;-97.822;2022-09-09T03:00:16;17.83;;;9.93;;
58460;SDS011;45558;37.752;-97.822;2022-09-09T03:02:41;22.60;;;9.60;;
58460;SDS011;45558;37.752;-97.822;2022-09-09T03:05:07;21.35;;;9.20;;
58460;SDS011;45558;37.752;-97.822;2022-09-09T03:07:33;20.00;;;8.93;;
58460;SDS011;45558;37.752;-97.822;2022-09-09T03:09:58;15.27;;;9.52;;
58460;SDS011;45558;37.752;-97.822;2022-09-09T03:12:24;23.70;;;9.80;;
58460;SDS011;45558;37.752;-97.822;2022-09-09T03:14:49;19.33;;;9.65;;
58460;SDS011;45558;37.752;-97.822;2022-09-09T03:17:16;16.48;;;9.43;;
58460;SDS011;45558;37.752;-97.822;2022-09-09T03:19:41;19.42;;;9.13;;
58460;SDS011;45558;37.752;-97.822;2022-09-09T03:22:09;23.27;;;9.98;;
58460;SDS011;45558;37.752;-97.822;2022-09-09T03:24:35;28.02;;;9.25;;
58460;SDS011;45558;37.752;-97.822;2022-09-09T03:27:00;19.00;;;9.02;;
58460;SDS011;45558;37.752;-97.822;2022-09-09T03:29:26;15.65;;;9.20;;
58460;SDS011;45558;37.752;-97.822;2022-09-09T03:31:51;22.25;;;9.45;;
58460;SDS011;45558;37.752;-97.822;2022-09-09T03:34:16;20.13;;;8.90;;
58460;SDS011;45558;37.752;-97.822;2022-09-09T03:36:42;18.13;;;9.18;;
58460;SDS011;45558;37.752;-97.822;2022-09-09T03:39:07;23.30;;;9.98;;
58460;SDS011;45558;37.752;-97.822;2022-09-09T03:41:33;22.77;;;11.13;;
58460;SDS011;45558;37.752;-97.822;2022-09-09T03:43:59;21.73;;;8.23;;
58460;SDS011;45558;37.752;-97.822;2022-09-09T03:46:25;23.50;;;10.10;;
58460;SDS011;45558;37.752;-97.822;2022-09-09T03:48:50;25.83;;;9.18;;
58460;SDS011;45558;37.752;-97.822;2022-09-09T03:51:17;23.30;;;8.50;;
58460;SDS011;45558;37.752;-97.822;2022-09-09T03:53:43;22.13;;;8.98;;
58460;SDS011;45558;37.752;-97.822;2022-09-09T03:56:09;16.33;;;8.00;;
58460;SDS011;45558;37.752;-97.822;2022-09-09T03:58:35;23.27;;;9.98;;
58460;SDS011;45558;37.752;-97.822;2022-09-09T04:01:02;22.23;;;8.63;;
58460;SDS011;45558;37.752;-97.822;2022-09-09T04:03:29;23.45;;;8.15;;
58460;SDS011;45558;37.752;-97.822;2022-09-09T04:05:55;21.88;;;7.70;;
58460;SDS011;45558;37.752;-97.822;2022-09-09T04:08:23;21.70;;;8.52;;
58460;SDS011;45558;37.752;-97.822;2022-09-09T04:10:50;13.50;;;8.43;;
58460;SDS011;45558;37.752;-97.822;2022-09-09T04:13:16;17.65;;;7.68;;
58460;SDS011;45558;37.752;-97.822;2022-09-09T04:15:43;22.88;;;8.77;;
58460;SDS011;45558;37.752;-97.822;2022-09-09T04:18:10;19.55;;;8.30;;
58460;SDS011;45558;37.752;-97.822;2022-09-09T04:20:36;18.55;;;7.95;;
58460;SDS011;45558;37.752;-97.822;2022-09-09T04:23:02;17.63;;;7.45;;
58460;SDS011;45558;37.752;-97.822;2022-09-09T04:25:28;18.10;;;8.13;;
58460;SDS011;45558;37.752;-97.822;2022-09-09T04:27:54;16.90;;;8.35;;
58460;SDS011;45558;37.752;-97.822;2022-09-09T04:30:20;13.98;;;7.85;;
58460;SDS011;45558;37.752;-97.822;2022-09-09T04:32:46;15.00;;;8.02;;
58460;SDS011;45558;37.752;-97.822;2022-09-09T04:35:11;13.90;;;7.50;;
58460;SDS011;45558;37.752;-97.822;2022-09-09T04:37:37;18.05;;;7.82;;
58460;SDS011;45558;37.752;-97.822;2022-09-09T04:40:02;18.90;;;7.70;;
58460;SDS011;45558;37.752;-97.822;2022-09-09T04:42:28;21.35;;;9.27;;
58460;SDS011;45558;37.752;-97.822;2022-09-09T04:44:53;21.50;;;8.68;;
58460;SDS011;45558;37.752;-97.822;2022-09-09T04:47:19;19.75;;;8.55;;
58460;SDS011;45558;37.752;-97.822;2022-09-09T04:49:46;20.20;;;8.57;;
58460;SDS011;45558;37.752;-97.822;2022-09-09T04:52:12;21.35;;;8.32;;
58460;SDS011;45558;37.752;-97.822;2022-09-09T04:54:37;16.15;;;8.80;;
58460;SDS011;45558;37.752;-97.822;2022-09-09T04:57:03;18.50;;;8.52;;
58460;SDS011;45558;37.752;-97.822;2022-09-09T04:59:30;16.83;;;8.65;;
58460;SDS011;45558;37.752;-97.822;2022-09-09T05:01:55;17.55;;;7.82;;
58460;SDS011;45558;37.752;-97.822;2022-09-09T05:04:21;18.10;;;8.10;;
58460;SDS011;45558;37.752;-97.822;2022-09-09T05:06:46;16.48;;;8.30;;
58460;SDS011;45558;37.752;-97.822;2022-09-09T05:09:13;23.42;;;8.13;;
58460;SDS011;45558;37.752;-97.822;2022-09-09T05:11:38;21.13;;;8.13;;
58460;SDS011;45558;37.752;-97.822;2022-09-09T05:14:04;18.98;;;8.30;;
58460;SDS011;45558;37.752;-97.822;2022-09-09T05:16:30;21.58;;;8.70;;
58460;SDS011;45558;37.752;-97.822;2022-09-09T05:18:55;21.38;;;7.88;;
58460;SDS011;45558;37.752;-97.822;2022-09-09T05:21:21;15.52;;;8.15;;
58460;SDS011;45558;37.752;-97.822;2022-09-09T05:23:51;17.45;;;7.65;;
58460;SDS011;45558;37.752;-97.822;2022-09-09T05:26:17;17.00;;;8.13;;
58460;SDS011;45558;37.752;-97.822;2022-09-09T05:28:44;26.55;;;9.73;;
58460;SDS011;45558;37.752;-97.822;2022-09-09T05:31:10;12.73;;;8.15;;
58460;SDS011;45558;37.752;-97.822;2022-09-09T05:33:38;19.25;;;8.13;;
58460;SDS011;45558;37.752;-97.822;2022-09-09T05:36:18;13.70;;;8.25;;
58460;SDS011;45558;37.752;-97.822;2022-09-09T05:38:45;14.00;;;7.18;;
58460;SDS011;45558;37.752;-97.822;2022-09-09T05:41:11;20.25;;;8.00;;
58460;SDS011;45558;37.752;-97.822;2022-09-09T05:43:38;16.38;;;7.88;;
58460;SDS011;45558;37.752;-97.822;2022-09-09T05:46:04;24.15;;;8.02;;
58460;SDS011;45558;37.752;-97.822;2022-09-09T05:48:32;17.60;;;8.50;;
58460;SDS011;45558;37.752;-97.822;2022-09-09T05:50:59;17.23;;;8.00;;
58460;SDS011;45558;37.752;-97.822;2022-09-09T05:53:28;16.88;;;7.43;;
58460;SDS011;45558;37.752;-97.822;2022-09-09T05:56:06;15.73;;;7.35;;
58460;SDS011;45558;37.752;-97.822;2022-09-09T05:58:35;15.75;;;8.10;;
58460;SDS011;45558;37.752;-97.822;2022-09-09T06:03:38;16.27;;;6.72;;
58460;SDS011;45558;37.752;-97.822;2022-09-09T06:06:05;15.05;;;6.95;;
58460;SDS011;45558;37.752;-97.822;2022-09-09T06:08:33;13.23;;;6.28;;
58460;SDS011;45558;37.752;-97.822;2022-09-09T06:11:03;16.08;;;6.55;;
58460;SDS011;45558;37.752;-97.822;2022-09-09T06:13:29;14.45;;;6.75;;
58460;SDS011;45558;37.752;-97.822;2022-09-09T06:15:55;13.60;;;6.55;;
58460;SDS011;45558;37.752;-97.822;2022-09-09T06:18:21;14.70;;;7.47;;
58460;SDS011;45558;37.752;-97.822;2022-09-09T06:20:56;19.90;;;6.93;;
58460;SDS011;45558;37.752;-97.822;2022-09-09T06:23:26;10.43;;;6.15;;
58460;SDS011;45558;37.752;-97.822;2022-09-09T06:28:38;19.08;;;6.60;;
58460;SDS011;45558;37.752;-97.822;2022-09-09T06:31:05;15.65;;;5.97;;
58460;SDS011;45558;37.752;-97.822;2022-09-09T06:33:32;16.80;;;5.88;;
58460;SDS011;45558;37.752;-97.822;2022-09-09T06:36:00;11.25;;;5.03;;
58460;SDS011;45558;37.752;-97.822;2022-09-09T06:38:26;13.35;;;6.18;;
58460;SDS011;45558;37.752;-97.822;2022-09-09T06:40:56;12.65;;;5.40;;
58460;SDS011;45558;37.752;-97.822;2022-09-09T06:43:25;12.13;;;5.30;;
58460;SDS011;45558;37.752;-97.822;2022-09-09T06:48:24;12.23;;;5.43;;
58460;SDS011;45558;37.752;-97.822;2022-09-09T06:50:51;13.98;;;5.50;;
58460;SDS011;45558;37.752;-97.822;2022-09-09T06:53:26;10.68;;;4.75;;
58460;SDS011;45558;37.752;-97.822;2022-09-09T06:55:53;12.00;;;4.82;;
58460;SDS011;45558;37.752;-97.822;2022-09-09T06:58:20;12.48;;;5.00;;
58460;SDS011;45558;37.752;-97.822;2022-09-09T07:00:47;9.10;;;4.53;;
58460;SDS011;45558;37.752;-97.822;2022-09-09T07:03:13;8.45;;;4.45;;
58460;SDS011;45558;37.752;-97.822;2022-09-09T07:05:38;7.18;;;3.63;;
58460;SDS011;45558;37.752;-97.822;2022-09-09T07:08:03;5.85;;;3.83;;
58460;SDS011;45558;37.752;-97.822;2022-09-09T07:10:29;8.77;;;4.40;;
58460;SDS011;45558;37.752;-97.822;2022-09-09T07:12:54;11.38;;;4.82;;
58460;SDS011;45558;37.752;-97.822;2022-09-09T07:15:20;10.32;;;3.78;;
58460;SDS011;45558;37.752;-97.822;2022-09-09T07:17:46;11.60;;;4.68;;
58460;SDS011;45558;37.752;-97.822;2022-09-09T07:20:13;5.28;;;3.53;;
58460;SDS011;45558;37.752;-97.822;2022-09-09T07:22:39;10.27;;;4.25;;
58460;SDS011;45558;37.752;-97.822;2022-09-09T07:25:05;8.55;;;4.65;;
58460;SDS011;45558;37.752;-97.822;2022-09-09T07:27:34;8.32;;;3.28;;
58460;SDS011;45558;37.752;-97.822;2022-09-09T07:30:00;5.63;;;4.13;;
58460;SDS011;45558;37.752;-97.822;2022-09-09T07:32:27;7.60;;;4.00;;
58460;SDS011;45558;37.752;-97.822;2022-09-09T07:34:55;6.95;;;3.95;;
58460;SDS011;45558;37.752;-97.822;2022-09-09T07:37:24;6.53;;;3.67;;
58460;SDS011;45558;37.752;-97.822;2022-09-09T07:39:49;11.85;;;4.22;;
58460;SDS011;45558;37.752;-97.822;2022-09-09T07:42:16;8.18;;;3.78;;
58460;SDS011;45558;37.752;-97.822;2022-09-09T07:44:41;8.48;;;3.55;;
58460;SDS011;45558;37.752;-97.822;2022-09-09T07:47:08;7.85;;;3.70;;
58460;SDS011;45558;37.752;-97.822;2022-09-09T07:49:33;6.35;;;3.95;;
58460;SDS011;45558;37.752;-97.822;2022-09-09T07:51:59;6.47;;;4.05;;
58460;SDS011;45558;37.752;-97.822;2022-09-09T07:54:25;15.63;;;6.10;;
58460;SDS011;45558;37.752;-97.822;2022-09-09T07:56:51;8.50;;;4.80;;
58460;SDS011;45558;37.752;-97.822;2022-09-09T07:59:17;10.18;;;4.10;;
58460;SDS011;45558;37.752;-97.822;2022-09-09T08:01:43;8.35;;;4.28;;
58460;SDS011;45558;37.752;-97.822;2022-09-09T08:04:13;8.23;;;4.40;;
58460;SDS011;45558;37.752;-97.822;2022-09-09T08:06:41;11.60;;;3.80;;
58460;SDS011;45558;37.752;-97.822;2022-09-09T08:09:10;6.55;;;3.90;;
58460;SDS011;45558;37.752;-97.822;2022-09-09T08:11:36;13.15;;;4.53;;
58460;SDS011;45558;37.752;-97.822;2022-09-09T08:14:02;10.93;;;4.18;;
58460;SDS011;45558;37.752;-97.822;2022-09-09T08:16:29;8.85;;;3.70;;
58460;SDS011;45558;37.752;-97.822;2022-09-09T08:18:56;10.25;;;3.80;;
58460;SDS011;45558;37.752;-97.822;2022-09-09T08:21:23;8.70;;;3.72;;
58460;SDS011;45558;37.752;-97.822;2022-09-09T08:23:52;7.50;;;3.75;;
58460;SDS011;45558;37.752;-97.822;2022-09-09T08:26:19;5.18;;;3.20;;
58460;SDS011;45558;37.752;-97.822;2022-09-09T08:28:47;7.45;;;3.00;;
58460;SDS011;45558;37.752;-97.822;2022-09-09T08:31:17;5.43;;;4.05;;
58460;SDS011;45558;37.752;-97.822;2022-09-09T08:33:44;5.53;;;3.13;;
58460;SDS011;45558;37.752;-97.822;2022-09-09T08:36:19;8.27;;;3.35;;
58460;SDS011;45558;37.752;-97.822;2022-09-09T08:38:50;7.97;;;3.35;;
58460;SDS011;45558;37.752;-97.822;2022-09-09T08:44:29;7.82;;;3.67;;
58460;SDS011;45558;37.752;-97.822;2022-09-09T08:52:31;5.07;;;2.85;;
58460;SDS011;45558;37.752;-97.822;2022-09-09T08:55:23;9.82;;;3.40;;
58460;SDS011;45558;37.752;-97.822;2022-09-09T08:57:53;4.88;;;3.30;;
58460;SDS011;45558;37.752;-97.822;2022-09-09T09:00:21;5.90;;;3.03;;
58460;SDS011;45558;37.752;-97.822;2022-09-09T09:03:03;5.43;;;2.83;;
58460;SDS011;45558;37.752;-97.822;2022-09-09T09:05:37;5.82;;;2.90;;
58460;SDS011;45558;37.752;-97.822;2022-09-09T09:08:31;6.25;;;2.80;;
58460;SDS011;45558;37.752;-97.822;2022-09-09T09:11:19;7.15;;;3.28;;
58460;SDS011;45558;37.752;-97.822;2022-09-09T09:13:58;4.97;;;2.95;;
58460;SDS011;45558;37.752;-97.822;2022-09-09T09:17:00;5.97;;;3.22;;
58460;SDS011;45558;37.752;-97.822;2022-09-09T09:19:28;6.88;;;3.10;;
58460;SDS011;45558;37.752;-97.822;2022-09-09T09:26:57;8.20;;;3.53;;
58460;SDS011;45558;37.752;-97.822;2022-09-09T09:29:24;7.45;;;3.40;;
58460;SDS011;45558;37.752;-97.822;2022-09-09T09:31:51;8.52;;;3.53;;
58460;SDS011;45558;37.752;-97.822;2022-09-09T09:34:20;13.30;;;4.38;;
58460;SDS011;45558;37.752;-97.822;2022-09-09T09:36:52;11.90;;;4.25;;
58460;SDS011;45558;37.752;-97.822;2022-09-09T09:41:50;8.18;;;3.90;;
58460;SDS011;45558;37.752;-97.822;2022-09-09T09:44:34;7.10;;;3.83;;
58460;SDS011;45558;37.752;-97.822;2022-09-09T09:47:10;8.30;;;4.20;;
58460;SDS011;45558;37.752;-97.822;2022-09-09T09:49:50;6.70;;;3.58;;
58460;SDS011;45558;37.752;-97.822;2022-09-09T09:52:21;5.32;;;3.83;;
58460;SDS011;45558;37.752;-97.822;2022-09-09T09:54:49;12.30;;;4.75;;
58460;SDS011;45558;37.752;-97.822;2022-09-09T09:57:22;10.15;;;3.90;;
58460;SDS011;45558;37.752;-97.822;2022-09-09T10:00:03;7.78;;;4.18;;
58460;SDS011;45558;37.752;-97.822;2022-09-09T10:02:39;5.63;;;4.03;;
58460;SDS011;45558;37.752;-97.822;2022-09-09T10:05:16;7.10;;;3.75;;
58460;SDS011;45558;37.752;-97.822;2022-09-09T10:07:43;10.23;;;4.32;;
58460;SDS011;45558;37.752;-97.822;2022-09-09T10:10:12;10.57;;;3.50;;
58460;SDS011;45558;37.752;-97.822;2022-09-09T10:13:04;6.45;;;2.78;;
58460;SDS011;45558;37.752;-97.822;2022-09-09T10:16:06;9.25;;;2.88;;
58460;SDS011;45558;37.752;-97.822;2022-09-09T10:29:34;5.78;;;1.85;;
58460;SDS011;45558;37.752;-97.822;2022-09-09T10:35:26;2.45;;;2.10;;
58460;SDS011;45558;37.752;-97.822;2022-09-09T10:38:01;5.15;;;2.50;;
58460;SDS011;45558;37.752;-97.822;2022-09-09T10:56:32;8.90;;;2.95;;
58460;SDS011;45558;37.752;-97.822;2022-09-09T10:59:00;6.55;;;3.08;;
58460;SDS011;45558;37.752;-97.822;2022-09-09T11:04:04;9.38;;;2.88;;
58460;SDS011;45558;37.752;-97.822;2022-09-09T11:06:37;6.03;;;2.55;;
58460;SDS011;45558;37.752;-97.822;2022-09-09T11:09:08;6.05;;;2.70;;
58460;SDS011;45558;37.752;-97.822;2022-09-09T11:11:42;8.75;;;3.03;;
58460;SDS011;45558;37.752;-97.822;2022-09-09T11:14:12;9.82;;;2.75;;
58460;SDS011;45558;37.752;-97.822;2022-09-09T11:19:38;4.40;;;2.55;;
58460;SDS011;45558;37.752;-97.822;2022-09-09T11:24:44;6.30;;;2.80;;
58460;SDS011;45558;37.752;-97.822;2022-09-09T11:27:13;8.73;;;2.83;;
58460;SDS011;45558;37.752;-97.822;2022-09-09T11:35:10;5.53;;;3.20;;
58460;SDS011;45558;37.752;-97.822;2022-09-09T11:40:53;5.72;;;2.72;;
58460;SDS011;45558;37.752;-97.822;2022-09-09T11:43:38;3.67;;;2.10;;
58460;SDS011;45558;37.752;-97.822;2022-09-09T11:46:06;5.60;;;1.92;;
58460;SDS011;45558;37.752;-97.822;2022-09-09T11:48:34;4.00;;;1.80;;
58460;SDS011;45558;37.752;-97.822;2022-09-09T11:51:11;5.55;;;1.80;;
58460;SDS011;45558;37.752;-97.822;2022-09-09T11:54:00;5.45;;;2.10;;
58460;SDS011;45558;37.752;-97.822;2022-09-09T11:59:34;5.97;;;1.85;;
58460;SDS011;45558;37.752;-97.822;2022-09-09T12:02:01;3.90;;;1.42;;
58460;SDS011;45558;37.752;-97.822;2022-09-09T12:04:29;2.80;;;1.10;;
58460;SDS011;45558;37.752;-97.822;2022-09-09T12:06:58;1.35;;;1.10;;
58460;SDS011;45558;37.752;-97.822;2022-09-09T12:17:36;5.47;;;1.67;;
58460;SDS011;45558;37.752;-97.822;2022-09-09T12:20:17;3.45;;;1.30;;
58460;SDS011;45558;37.752;-97.822;2022-09-09T12:36:40;3.30;;;1.30;;
58460;SDS011;45558;37.752;-97.822;2022-09-09T12:41:59;6.10;;;2.00;;
58460;SDS011;45558;37.752;-97.822;2022-09-09T12:44:25;5.18;;;2.03;;
58460;SDS011;45558;37.752;-97.822;2022-09-09T12:46:53;3.97;;;1.75;;
58460;SDS011;45558;37.752;-97.822;2022-09-09T12:49:29;6.55;;;2.35;;
58460;SDS011;45558;37.752;-97.822;2022-09-09T12:52:03;6.97;;;2.83;;
58460;SDS011;45558;37.752;-97.822;2022-09-09T12:54:30;7.28;;;2.38;;
58460;SDS011;45558;37.752;-97.822;2022-09-09T12:56:57;9.07;;;2.53;;
58460;SDS011;45558;37.752;-97.822;2022-09-09T12:59:24;13.77;;;2.78;;
58460;SDS011;45558;37.752;-97.822;2022-09-09T13:01:57;9.13;;;3.08;;
58460;SDS011;45558;37.752;-97.822;2022-09-09T13:04:23;3.95;;;2.60;;
58460;SDS011;45558;37.752;-97.822;2022-09-09T13:06:49;3.65;;;1.98;;
58460;SDS011;45558;37.752;-97.822;2022-09-09T13:09:14;2.10;;;1.40;;
58460;SDS011;45558;37.752;-97.822;2022-09-09T13:11:44;3.67;;;1.65;;
58460;SDS011;45558;37.752;-97.822;2022-09-09T13:14:16;3.08;;;1.77;;
58460;SDS011;45558;37.752;-97.822;2022-09-09T13:16:53;3.30;;;1.35;;
58460;SDS011;45558;37.752;-97.822;2022-09-09T13:19:22;2.00;;;1.38;;
58460;SDS011;45558;37.752;-97.822;2022-09-09T13:21:50;3.42;;;1.38;;
58460;SDS011;45558;37.752;-97.822;2022-09-09T13:24:38;4.60;;;1.42;;
58460;SDS011;45558;37.752;-97.822;2022-09-09T13:27:04;2.67;;;1.20;;
58460;SDS011;45558;37.752;-97.822;2022-09-09T13:29:50;0.80;;;0.70;;
58460;SDS011;45558;37.752;-97.822;2022-09-09T13:32:20;2.55;;;0.80;;
58460;SDS011;45558;37.752;-97.822;2022-09-09T13:34:53;3.58;;;1.13;;
58460;SDS011;45558;37.752;-97.822;2022-09-09T13:37:36;1.02;;;0.60;;
58460;SDS011;45558;37.752;-97.822;2022-09-09T13:40:03;2.55;;;1.00;;
58460;SDS011;45558;37.752;-97.822;2022-09-09T13:42:32;3.45;;;1.02;;
58460;SDS011;45558;37.752;-97.822;2022-09-09T13:45:02;4.43;;;1.30;;
58460;SDS011;45558;37.752;-97.822;2022-09-09T13:47:33;6.20;;;1.40;;
58460;SDS011;45558;37.752;-97.822;2022-09-09T13:52:56;3.60;;;1.30;;
58460;SDS011;45558;37.752;-97.822;2022-09-09T13:55:26;1.65;;;1.20;;
58460;SDS011;45558;37.752;-97.822;2022-09-09T13:58:02;3.15;;;1.48;;
58460;SDS011;45558;37.752;-97.822;2022-09-09T14:00:30;7.03;;;1.88;;
58460;SDS011;45558;37.752;-97.822;2022-09-09T14:02:59;4.00;;;1.48;;
58460;SDS011;45558;37.752;-97.822;2022-09-09T14:05:27;4.43;;;1.35;;
58460;SDS011;45558;37.752;-97.822;2022-09-09T14:07:52;3.85;;;1.67;;
58460;SDS011;45558;37.752;-97.822;2022-09-09T14:10:19;5.07;;;1.67;;
58460;SDS011;45558;37.752;-97.822;2022-09-09T14:12:47;3.60;;;2.00;;
58460;SDS011;45558;37.752;-97.822;2022-09-09T14:15:14;3.88;;;1.67;;
58460;SDS011;45558;37.752;-97.822;2022-09-09T14:17:41;2.25;;;1.30;;
58460;SDS011;45558;37.752;-97.822;2022-09-09T14:20:07;6.13;;;2.13;;
58460;SDS011;45558;37.752;-97.822;2022-09-09T14:22:33;4.93;;;1.88;;
58460;SDS011;45558;37.752;-97.822;2022-09-09T14:24:59;5.88;;;2.20;;
58460;SDS011;45558;37.752;-97.822;2022-09-09T14:27:25;8.18;;;1.98;;
58460;SDS011;45558;37.752;-97.822;2022-09-09T14:29:55;7.88;;;2.53;;
58460;SDS011;45558;37.752;-97.822;2022-09-09T14:32:21;5.25;;;1.95;;
58460;SDS011;45558;37.752;-97.822;2022-09-09T14:34:47;6.13;;;1.75;;
58460;SDS011;45558;37.752;-97.822;2022-09-09T14:37:14;7.10;;;2.58;;
58460;SDS011;45558;37.752;-97.822;2022-09-09T14:39:41;7.10;;;2.25;;
58460;SDS011;45558;37.752;-97.822;2022-09-09T14:42:08;6.55;;;2.13;;
58460;SDS011;45558;37.752;-97.822;2022-09-09T14:44:36;2.92;;;1.90;;
58460;SDS011;45558;37.752;-97.822;2022-09-09T14:47:03;3.55;;;2.00;;
58460;SDS011;45558;37.752;-97.822;2022-09-09T14:49:29;4.43;;;2.28;;
58460;SDS011;45558;37.752;-97.822;2022-09-09T14:51:54;5.93;;;2.00;;
58460;SDS011;45558;37.752;-97.822;2022-09-09T14:54:21;5.60;;;1.92;;
58460;SDS011;45558;37.752;-97.822;2022-09-09T14:56:48;6.28;;;2.28;;
58460;SDS011;45558;37.752;-97.822;2022-09-09T14:59:13;8.85;;;3.05;;
58460;SDS011;45558;37.752;-97.822;2022-09-09T15:01:40;7.80;;;2.20;;
58460;SDS011;45558;37.752;-97.822;2022-09-09T15:04:07;8.02;;;3.47;;
58460;SDS011;45558;37.752;-97.822;2022-09-09T15:06:33;5.18;;;2.13;;
58460;SDS011;45558;37.752;-97.822;2022-09-09T15:09:01;5.85;;;2.55;;
58460;SDS011;45558;37.752;-97.822;2022-09-09T15:11:28;5.25;;;2.78;;
58460;SDS011;45558;37.752;-97.822;2022-09-09T15:13:58;6.53;;;2.53;;
58460;SDS011;45558;37.752;-97.822;2022-09-09T15:16:24;6.72;;;2.90;;
58460;SDS011;45558;37.752;-97.822;2022-09-09T15:18:53;5.93;;;2.85;;
58460;SDS011;45558;37.752;-97.822;2022-09-09T15:21:21;5.03;;;3.30;;
58460;SDS011;45558;37.752;-97.822;2022-09-09T15:23:48;5.60;;;2.45;;
58460;SDS011;45558;37.752;-97.822;2022-09-09T15:26:14;5.20;;;2.63;;
58460;SDS011;45558;37.752;-97.822;2022-09-09T15:28:40;10.07;;;2.22;;
58460;SDS011;45558;37.752;-97.822;2022-09-09T15:33:34;4.70;;;2.53;;
58460;SDS011;45558;37.752;-97.822;2022-09-09T15:36:12;6.03;;;2.70;;
58460;SDS011;45558;37.752;-97.822;2022-09-09T15:38:47;5.30;;;2.45;;
58460;SDS011;45558;37.752;-97.822;2022-09-09T15:41:13;5.70;;;3.10;;
58460;SDS011;45558;37.752;-97.822;2022-09-09T15:43:39;5.82;;;2.35;;
58460;SDS011;45558;37.752;-97.822;2022-09-09T15:46:21;3.92;;;2.28;;
58460;SDS011;45558;37.752;-97.822;2022-09-09T15:51:15;3.88;;;2.10;;
58460;SDS011;45558;37.752;-97.822;2022-09-09T15:53:40;6.32;;;2.50;;
58460;SDS011;45558;37.752;-97.822;2022-09-09T15:56:06;3.38;;;2.10;;
58460;SDS011;45558;37.752;-97.822;2022-09-09T15:58:32;3.15;;;2.20;;
58460;SDS011;45558;37.752;-97.822;2022-09-09T16:01:08;3.45;;;1.52;;
58460;SDS011;45558;37.752;-97.822;2022-09-09T16:03:34;5.57;;;1.80;;
58460;SDS011;45558;37.752;-97.822;2022-09-09T16:06:04;4.22;;;1.42;;
58460;SDS011;45558;37.752;-97.822;2022-09-09T16:08:33;3.20;;;1.48;;
58460;SDS011;45558;37.752;-97.822;2022-09-09T16:13:34;4.38;;;1.40;;
58460;SDS011;45558;37.752;-97.822;2022-09-09T16:16:04;3.45;;;1.48;;
58460;SDS011;45558;37.752;-97.822;2022-09-09T16:18:51;6.05;;;1.80;;
58460;SDS011;45558;37.752;-97.822;2022-09-09T16:21:22;3.65;;;1.50;;
58460;SDS011;45558;37.752;-97.822;2022-09-09T16:23:54;4.55;;;1.60;;
58460;SDS011;45558;37.752;-97.822;2022-09-09T16:26:20;6.30;;;1.70;;
58460;SDS011;45558;37.752;-97.822;2022-09-09T16:28:46;5.80;;;1.30;;
58460;SDS011;45558;37.752;-97.822;2022-09-09T16:31:19;2.08;;;1.08;;
58460;SDS011;45558;37.752;-97.822;2022-09-09T16:33:46;3.97;;;1.65;;
58460;SDS011;45558;37.752;-97.822;2022-09-09T16:36:14;7.07;;;1.58;;
58460;SDS011;45558;37.752;-97.822;2022-09-09T16:38:41;3.45;;;1.30;;
58460;SDS011;45558;37.752;-97.822;2022-09-09T16:41:08;2.90;;;1.58;;
58460;SDS011;45558;37.752;-97.822;2022-09-09T16:43:35;1.85;;;1.15;;
58460;SDS011;45558;37.752;-97.822;2022-09-09T16:46:02;2.90;;;1.40;;
58460;SDS011;45558;37.752;-97.822;2022-09-09T16:48:32;4.22;;;1.73;;
58460;SDS011;45558;37.752;-97.822;2022-09-09T16:51:04;5.88;;;1.92;;
58460;SDS011;45558;37.752;-97.822;2022-09-09T16:53:32;4.07;;;1.55;;
58460;SDS011;45558;37.752;-97.822;2022-09-09T16:55:58;4.00;;;1.80;;
58460;SDS011;45558;37.752;-97.822;2022-09-09T16:58:23;3.22;;;1.85;;